Isle of Tiree, United Kingdom
Current Conditions -  °F | °C
As of 5:50 AM on Sunday 26 Oct 2014 (Local Time) from EGPU Reporting Station
Light Rain Light Rain  
Wind Chill: 12°   Ceiling: Unl
Heat Index: 12°   Visibility: 6mi
Dew Point: 10°   Wind: 37mph
Humidity: 88%   Direction: 240°WSW
Pressure: 29.5"   Gusts: 51mph
Location:  56.51°N, 6.81°W
Report Text: EGPU 260450Z AUTO 24032G44KT 210V270 9999 -RA FEW022/// SCT027/// 12/10 Q0999
Loading
Personal Weather Stations






























Interactive Weather Map
Tropical Storm Tracking
New forecast layout! Learn more

10-Day Weather Forecast

Advertisements
Track Severe Weather on mobile